Gemengd met buien
Bewolkt met lichte regen
Bewolkt
Overwegend bewolkt en weinig cirrus
Bewolkt
Bewolkt
Overwegend bewolkt en weinig cirrus
Bewolkt
Gedeeltelijk bewolkt en cirrus
(°C)
22°
22°
20°
20°
20°
20°
19°
19°
19°
19°
19°
19°
18°
18°
18°
18°
18°
18°
(°C)
24°
23°
22°
21°
21°
21°
20°
20°
20°
WZW
ZW
ZZW
WZW
ZZW
ONO
ONO
NO
ONO
(km/h)
4-12
3-11
3-8
3-7
3-7
3-8
3-5
3-4
2-2
(mm)
0.1
0.1
0
0
0
0
0
0
0
(%)
65
65
0
6
6
0
0
0
6

Zonverhoging

/ -4.9°
sun-icon
UV 4
05:01
20:43
Wassende gibbous maan (167°)
20:45
03:02

METAR voor Hvozdnica (LZZI)

Tijd Voorwaarden Temperatuur/
Dauwpunt
Wind Zicht Weer Wolken Luchtdruk Wijzigen Ruw
VFR 23°C / 19°C 1kt 9700m - Scattered Clouds 5200ft 1011 - LZZI 201900Z VRB01KT 9999 SCT052 23/19 Q1011
VFR 23°C / 18°C 280º 2kt 9700m - Scattered Clouds 4800ft 1011 - LZZI 201830Z 28002KT 9999 SCT048 23/18 Q1011
VFR 23°C / 18°C 250º variable 230º to 290º 3kt 9700m - Few Clouds 5500ft 1011 - LZZI 201730Z 25003KT 230V290 9999 FEW055 23/18 Q1011
VFR 23°C / 19°C 250º 4kt 9700m - Few Clouds 5400ft 1011 - LZZI 201700Z 25004KT 9999 FEW054 23/19 Q1011
VFR 24°C / 18°C 240º 5kt 9700m - Few Clouds 5200ft 1011 - LZZI 201630Z 24005KT 9999 FEW052 24/18 Q1011
VFR 24°C / 18°C 240º 5kt 9700m - Few Clouds 5000ft 1011 - LZZI 201600Z 24005KT 9999 FEW050 24/18 Q1011
VFR 25°C / 18°C 240º 8kt 9700m - Few Clouds 5500ft 1011 - LZZI 201530Z 24008KT 9999 FEW055 25/18 Q1011
VFR 25°C / 17°C 250º 5kt 9700m - Few Clouds 5500ft 1011 - LZZI 201500Z 25005KT 9999 FEW055 25/17 Q1011
VFR 26°C / 17°C 230º 6kt 9700m - Few Clouds 5500ft 1011 - LZZI 201430Z 23006KT 9999 FEW055 26/17 Q1011
VFR 26°C / 17°C 250º 5kt 9700m - Few Clouds 5500ft 1011 - LZZI 201400Z 25005KT 9999 FEW055 26/17 Q1011
VFR 26°C / 17°C 260º 5kt 9700m - Few Clouds 5300ft 1012 - LZZI 201330Z 26005KT 9999 FEW053 26/17 Q1012
VFR 26°C / 17°C 240º 6kt 9700m - Few Clouds 5200ft 1012 - LZZI 201300Z 24006KT 9999 FEW052 26/17 Q1012
VFR 26°C / 16°C 240º 5kt 9700m - Few Clouds 5000ft 1012 - LZZI 201230Z 24005KT 9999 FEW050 26/16 Q1012
VFR 26°C / 16°C 230º 5kt 9700m - Few Clouds 5000ft 1012 - LZZI 201200Z 23005KT 9999 FEW050 26/16 Q1012
VFR 26°C / 17°C 230º variable 200º to 260º 4kt 9700m - Few Clouds 4800ft 1012 - LZZI 201130Z 23004KT 200V260 9999 FEW048 26/17 Q1012
VFR 26°C / 15°C 190º variable 130º to 280º 3kt 9700m - Few Clouds 4500ft 1012 - LZZI 201100Z 19003KT 130V280 9999 FEW045 26/15 Q1012
VFR 27°C / 16°C 230º variable 190º to 280º 3kt 9700m - Few Clouds 4300ft 1013 - LZZI 201030Z 23003KT 190V280 9999 FEW043 27/16 Q1013
VFR 26°C / 14°C 2kt 9700m - Few Clouds 4000ft 1013 - LZZI 201000Z VRB02KT 9999 FEW040 26/14 Q1013
VFR 26°C / 15°C 2kt 9700m - Few Clouds 3700ft 1013 - LZZI 200930Z VRB02KT 9999 FEW037 26/15 Q1013
VFR 25°C / 15°C 2kt 9700m - Few Clouds 3500ft 1013 - LZZI 200900Z VRB02KT 9999 FEW035 25/15 Q1013
VFR 24°C / 16°C 1kt 9700m - Clouds and Visibility OK 1013 - LZZI 200830Z VRB01KT CAVOK 24/16 Q1013
VFR 23°C / 16°C 2kt 9700m - Clouds and Visibility OK 1014 - LZZI 200800Z VRB02KT CAVOK 23/16 Q1014
VFR 23°C / 15°C 1kt 9700m - Few Clouds 6000ft 1014 - LZZI 200730Z VRB01KT 9999 FEW060 23/15 Q1014
VFR 23°C / 17°C 1kt 9700m - Scattered Clouds 5800ft 1014 - LZZI 200700Z VRB01KT 9999 SCT058 23/17 Q1014

VFR

23°C / 19°C

[Meer]
Wind 1kt
Zicht 9700m
Weer -
Wolken Scattered Clouds 5200ft
Luchtdruk 1011
Wijzigen -
Ruw LZZI 201900Z VRB01KT 9999 SCT052 23/19 Q1011

VFR

23°C / 18°C

[Meer]
Wind 280º 2kt
Zicht 9700m
Weer -
Wolken Scattered Clouds 4800ft
Luchtdruk 1011
Wijzigen -
Ruw LZZI 201830Z 28002KT 9999 SCT048 23/18 Q1011

VFR

23°C / 18°C

[Meer]
Wind 250º variable 230º to 290º 3kt
Zicht 9700m
Weer -
Wolken Few Clouds 5500ft
Luchtdruk 1011
Wijzigen -
Ruw LZZI 201730Z 25003KT 230V290 9999 FEW055 23/18 Q1011

VFR

23°C / 19°C

[Meer]
Wind 250º 4kt
Zicht 9700m
Weer -
Wolken Few Clouds 5400ft
Luchtdruk 1011
Wijzigen -
Ruw LZZI 201700Z 25004KT 9999 FEW054 23/19 Q1011

VFR

24°C / 18°C

[Meer]
Wind 240º 5kt
Zicht 9700m
Weer -
Wolken Few Clouds 5200ft
Luchtdruk 1011
Wijzigen -
Ruw LZZI 201630Z 24005KT 9999 FEW052 24/18 Q1011

VFR

24°C / 18°C

[Meer]
Wind 240º 5kt
Zicht 9700m
Weer -
Wolken Few Clouds 5000ft
Luchtdruk 1011
Wijzigen -
Ruw LZZI 201600Z 24005KT 9999 FEW050 24/18 Q1011

VFR

25°C / 18°C

[Meer]
Wind 240º 8kt
Zicht 9700m
Weer -
Wolken Few Clouds 5500ft
Luchtdruk 1011
Wijzigen -
Ruw LZZI 201530Z 24008KT 9999 FEW055 25/18 Q1011

VFR

25°C / 17°C

[Meer]
Wind 250º 5kt
Zicht 9700m
Weer -
Wolken Few Clouds 5500ft
Luchtdruk 1011
Wijzigen -
Ruw LZZI 201500Z 25005KT 9999 FEW055 25/17 Q1011

VFR

26°C / 17°C

[Meer]
Wind 230º 6kt
Zicht 9700m
Weer -
Wolken Few Clouds 5500ft
Luchtdruk 1011
Wijzigen -
Ruw LZZI 201430Z 23006KT 9999 FEW055 26/17 Q1011

VFR

26°C / 17°C

[Meer]
Wind 250º 5kt
Zicht 9700m
Weer -
Wolken Few Clouds 5500ft
Luchtdruk 1011
Wijzigen -
Ruw LZZI 201400Z 25005KT 9999 FEW055 26/17 Q1011

VFR

26°C / 17°C

[Meer]
Wind 260º 5kt
Zicht 9700m
Weer -
Wolken Few Clouds 5300ft
Luchtdruk 1012
Wijzigen -
Ruw LZZI 201330Z 26005KT 9999 FEW053 26/17 Q1012

VFR

26°C / 17°C

[Meer]
Wind 240º 6kt
Zicht 9700m
Weer -
Wolken Few Clouds 5200ft
Luchtdruk 1012
Wijzigen -
Ruw LZZI 201300Z 24006KT 9999 FEW052 26/17 Q1012

VFR

26°C / 16°C

[Meer]
Wind 240º 5kt
Zicht 9700m
Weer -
Wolken Few Clouds 5000ft
Luchtdruk 1012
Wijzigen -
Ruw LZZI 201230Z 24005KT 9999 FEW050 26/16 Q1012

VFR

26°C / 16°C

[Meer]
Wind 230º 5kt
Zicht 9700m
Weer -
Wolken Few Clouds 5000ft
Luchtdruk 1012
Wijzigen -
Ruw LZZI 201200Z 23005KT 9999 FEW050 26/16 Q1012

VFR

26°C / 17°C

[Meer]
Wind 230º variable 200º to 260º 4kt
Zicht 9700m
Weer -
Wolken Few Clouds 4800ft
Luchtdruk 1012
Wijzigen -
Ruw LZZI 201130Z 23004KT 200V260 9999 FEW048 26/17 Q1012

VFR

26°C / 15°C

[Meer]
Wind 190º variable 130º to 280º 3kt
Zicht 9700m
Weer -
Wolken Few Clouds 4500ft
Luchtdruk 1012
Wijzigen -
Ruw LZZI 201100Z 19003KT 130V280 9999 FEW045 26/15 Q1012

VFR

27°C / 16°C

[Meer]
Wind 230º variable 190º to 280º 3kt
Zicht 9700m
Weer -
Wolken Few Clouds 4300ft
Luchtdruk 1013
Wijzigen -
Ruw LZZI 201030Z 23003KT 190V280 9999 FEW043 27/16 Q1013

VFR

26°C / 14°C

[Meer]
Wind 2kt
Zicht 9700m
Weer -
Wolken Few Clouds 4000ft
Luchtdruk 1013
Wijzigen -
Ruw LZZI 201000Z VRB02KT 9999 FEW040 26/14 Q1013

VFR

26°C / 15°C

[Meer]
Wind 2kt
Zicht 9700m
Weer -
Wolken Few Clouds 3700ft
Luchtdruk 1013
Wijzigen -
Ruw LZZI 200930Z VRB02KT 9999 FEW037 26/15 Q1013

VFR

25°C / 15°C

[Meer]
Wind 2kt
Zicht 9700m
Weer -
Wolken Few Clouds 3500ft
Luchtdruk 1013
Wijzigen -
Ruw LZZI 200900Z VRB02KT 9999 FEW035 25/15 Q1013

VFR

24°C / 16°C

[Meer]
Wind 1kt
Zicht 9700m
Weer -
Wolken Clouds and Visibility OK
Luchtdruk 1013
Wijzigen -
Ruw LZZI 200830Z VRB01KT CAVOK 24/16 Q1013

VFR

23°C / 16°C

[Meer]
Wind 2kt
Zicht 9700m
Weer -
Wolken Clouds and Visibility OK
Luchtdruk 1014
Wijzigen -
Ruw LZZI 200800Z VRB02KT CAVOK 23/16 Q1014

VFR

23°C / 15°C

[Meer]
Wind 1kt
Zicht 9700m
Weer -
Wolken Few Clouds 6000ft
Luchtdruk 1014
Wijzigen -
Ruw LZZI 200730Z VRB01KT 9999 FEW060 23/15 Q1014

VFR

23°C / 17°C

[Meer]
Wind 1kt
Zicht 9700m
Weer -
Wolken Scattered Clouds 5800ft
Luchtdruk 1014
Wijzigen -
Ruw LZZI 200700Z VRB01KT 9999 SCT058 23/17 Q1014

TAF voor Hvozdnica (LZZI)

From till


From till Wind 2kt. Visibility 9700m. Scattered Clouds 4000ft.

Ruw: TAF LZZI 201715Z 2018/2103 VRB02KT 9999 SCT040

Radar en neerslag nowcast voor Hvozdnica

Motregen
Licht
Matig
Zwaar
Zeer zwaar
Hagel

De locatiemarkering is op Hvozdnica geplaatst . Deze animatie toont de neerslagradar voor het geselecteerde tijdvak, alsmede een 2h voorspelling. Oranje kruisjes geven de bliksem aan. Gegevens verstrekt door nowcast.de (beschikbaar in de VS, Europa en Australië). Motregen of lichte sneeuwval kan onzichtbaar zijn voor de radar. De neerslagintensiteit heeft een kleurcode, gaande van turkoois tot rood.

Huidige satelliet- en regenbeelden voor Hvozdnica, Slowakije

De locatiemarkering is op Hvozdnica geplaatst. [Meer]

Het realtime satellietbeeld combineert zichtbaar licht overdag met infraroodstraling 's nachts. 's Nachts is het beeld niet donker, omdat infraroodstraling temperatuurverschillen kan waarnemen. Helaas zijn lage wolken en mist moeilijk te onderscheiden van grondtemperaturen en kunnen dus 's nachts bijna onzichtbaar zijn. Meteosat-satellietbeelden voor Europa worden elke 5 minuten in real time bijgewerkt. De beelden van GOES-16/GOES-17 (Noord- en Zuid-Amerika) en Himawari (Azië) worden om de 10 minuten bijgewerkt.

De neerslag wordt geschat met behulp van radar en satellieten. Neerslagschattingen van satellieten zijn 's nachts minder nauwkeurig dan overdag.

© 2024 meteoblue, NOAA Satellites GOES-16 and EUMETSAT. Bliksemgegevens verstrekt door nowcast.

Terug naar boven
×
Hallo daar,
Het lijkt erop dat u een advertentieblokker gebruikt.

Reclame is van essentieel belang om onze gratis website te onderhouden met unieke details en nauwkeurigheid.

Gelieve www.meteoblue.com te whitelisten op uw ad blocker of overweeg één van onze producten:

Heeft u al een abonnement?
Dan kunt u inloggen.